createdAt,value
2023-05-05T03:02:43.239Z,14.50
2023-05-05T03:05:17.761Z,14.60
2023-05-05T03:07:54.797Z,14.50
2023-05-05T03:10:31.888Z,14.50
2023-05-05T03:13:08.214Z,14.50
2023-05-05T03:15:44.035Z,14.40
2023-05-05T03:18:15.540Z,14.40
2023-05-05T03:20:47.840Z,14.50
2023-05-05T03:23:20.918Z,14.50
2023-05-05T03:25:51.896Z,14.50
2023-05-05T03:28:29.061Z,14.40
2023-05-05T03:30:59.632Z,14.30
2023-05-05T03:33:29.049Z,14.30
2023-05-05T03:36:00.228Z,14.30
2023-05-05T03:38:28.301Z,14.40
2023-05-05T03:40:57.144Z,14.40
2023-05-05T03:43:27.646Z,14.40
2023-05-05T03:45:55.695Z,14.40
2023-05-05T03:48:23.815Z,14.30
2023-05-05T03:50:54.784Z,14.40
2023-05-05T03:53:24.701Z,14.40
2023-05-05T03:55:52.863Z,14.40
2023-05-05T03:58:20.938Z,14.40
2023-05-05T04:00:49.658Z,14.40
2023-05-05T04:03:19.239Z,14.50
2023-05-05T04:05:47.598Z,14.30
2023-05-05T04:08:17.288Z,14.20
2023-05-05T04:10:45.182Z,14.20
2023-05-05T04:13:13.373Z,14.30
2023-05-05T04:15:45.714Z,14.10
2023-05-05T04:18:14.251Z,14.10
2023-05-05T04:20:42.157Z,14.20
2023-05-05T04:23:11.591Z,14.30
2023-05-05T04:25:41.788Z,14.30
2023-05-05T04:28:10.690Z,14.30
2023-05-05T04:30:38.639Z,14.30
2023-05-05T04:33:06.551Z,14.40
2023-05-05T04:35:34.911Z,14.40
2023-05-05T04:38:03.586Z,14.40
2023-05-05T04:40:31.970Z,14.50
2023-05-05T04:43:01.990Z,14.40
2023-05-05T04:45:31.199Z,14.30
2023-05-05T04:47:59.152Z,14.20
2023-05-05T04:50:27.078Z,14.20
2023-05-05T04:52:55.067Z,14.20
2023-05-05T04:55:23.538Z,14.10
2023-05-05T04:57:51.412Z,14.00
2023-05-05T05:00:20.690Z,14.00
2023-05-05T05:02:48.607Z,14.00
2023-05-05T05:05:16.603Z,14.10
2023-05-05T05:07:45.847Z,14.10
2023-05-05T05:10:13.830Z,14.20
2023-05-05T05:12:41.781Z,14.30
2023-05-05T05:15:11.230Z,14.30
2023-05-05T05:17:40.529Z,14.30
2023-05-05T05:20:09.688Z,14.20
2023-05-05T05:22:38.854Z,14.30
2023-05-05T05:25:10.462Z,14.30
2023-05-05T05:27:38.400Z,14.30
2023-05-05T05:30:07.187Z,14.30
2023-05-05T05:32:35.640Z,14.30
2023-05-05T05:35:06.006Z,14.20
2023-05-05T05:37:35.652Z,14.20
2023-05-05T05:40:05.861Z,14.20
2023-05-05T05:42:35.236Z,14.20
2023-05-05T05:45:04.270Z,14.20
2023-05-05T05:47:32.279Z,14.20
2023-05-05T05:50:00.218Z,14.20
2023-05-05T05:52:30.049Z,14.30
2023-05-05T05:54:57.942Z,14.30
2023-05-05T05:57:25.861Z,14.40
2023-05-05T05:59:53.883Z,14.50
2023-05-05T06:02:22.391Z,14.60
2023-05-05T06:04:50.598Z,14.70
2023-05-05T06:07:18.473Z,14.90
2023-05-05T06:09:48.017Z,15.10
2023-05-05T06:12:16.273Z,15.30
2023-05-05T06:14:44.725Z,15.40
2023-05-05T06:17:12.591Z,15.40
2023-05-05T06:19:43.245Z,15.30
2023-05-05T06:22:11.402Z,15.20
2023-05-05T06:24:39.592Z,15.30
2023-05-05T06:27:09.334Z,15.20
2023-05-05T06:29:37.169Z,15.20
2023-05-05T06:32:07.693Z,15.40
2023-05-05T06:34:35.585Z,15.60
2023-05-05T06:37:03.488Z,15.70
2023-05-05T06:39:31.486Z,15.80
2023-05-05T06:41:59.674Z,15.90
2023-05-05T06:44:30.975Z,16.00
2023-05-05T06:46:59.077Z,16.30
2023-05-05T06:49:26.957Z,16.50
2023-05-05T06:51:54.829Z,16.60
2023-05-05T06:54:22.705Z,16.80
2023-05-05T06:56:50.546Z,16.90
2023-05-05T06:59:18.480Z,17.00
2023-05-05T07:01:47.781Z,17.00
2023-05-05T07:04:16.317Z,17.00
2023-05-05T07:06:44.405Z,17.10
2023-05-05T07:09:12.606Z,17.20
2023-05-05T07:11:40.454Z,17.30
2023-05-05T07:14:08.287Z,17.40
2023-05-05T07:16:37.235Z,17.40
2023-05-05T07:19:06.536Z,17.50
2023-05-05T07:21:35.112Z,17.50
2023-05-05T07:24:03.473Z,17.50
2023-05-05T07:26:31.530Z,17.60
2023-05-05T07:28:59.568Z,17.70
2023-05-05T07:31:27.594Z,17.80
2023-05-05T07:33:55.462Z,17.90
2023-05-05T07:36:24.666Z,17.90
2023-05-05T07:38:52.517Z,18.00
2023-05-05T07:41:20.399Z,18.10
2023-05-05T07:43:48.303Z,18.10
2023-05-05T07:46:16.215Z,18.20
2023-05-05T07:48:44.069Z,18.20
2023-05-05T07:51:11.933Z,18.30
2023-05-05T07:53:42.196Z,18.40
2023-05-05T07:56:10.092Z,18.50
2023-05-05T07:58:38.200Z,18.50
2023-05-05T08:01:10.899Z,18.50
2023-05-05T08:03:38.998Z,18.60
2023-05-05T08:06:10.444Z,18.60
2023-05-05T08:08:38.706Z,18.70
2023-05-05T08:11:08.014Z,18.80
2023-05-05T08:13:35.855Z,18.80
2023-05-05T08:16:03.918Z,18.80
2023-05-05T08:18:31.764Z,18.90
2023-05-05T08:20:59.598Z,19.00
2023-05-05T08:23:27.441Z,19.20
2023-05-05T08:25:55.294Z,19.20
2023-05-05T08:28:24.477Z,19.30
2023-05-05T08:30:52.354Z,19.40
2023-05-05T08:33:20.235Z,19.50
2023-05-05T08:35:49.938Z,19.60
2023-05-05T08:38:19.028Z,19.60
2023-05-05T08:40:47.052Z,19.70
2023-05-05T08:43:15.791Z,19.80
2023-05-05T08:45:46.070Z,19.90
2023-05-05T08:48:14.438Z,19.90
2023-05-05T08:50:48.967Z,20.00
2023-05-05T08:53:18.291Z,20.10
2023-05-05T08:55:51.223Z,20.20
2023-05-05T08:58:19.913Z,20.30
2023-05-05T09:00:49.263Z,20.40
2023-05-05T09:03:17.536Z,20.50
2023-05-05T09:05:45.924Z,20.50
2023-05-05T09:08:14.100Z,20.60
2023-05-05T09:10:43.111Z,20.70
2023-05-05T09:13:11.110Z,20.80
2023-05-05T09:15:41.303Z,20.90
2023-05-05T09:18:12.092Z,21.00
2023-05-05T09:20:41.022Z,21.10
2023-05-05T09:23:10.634Z,21.20
2023-05-05T09:25:38.881Z,21.30
2023-05-05T09:28:11.255Z,21.40
2023-05-05T09:30:40.246Z,21.30
2023-05-05T09:33:08.922Z,21.30
2023-05-05T09:35:51.850Z,21.20
2023-05-05T09:38:20.095Z,21.30
2023-05-05T09:40:49.346Z,21.50
2023-05-05T09:43:17.977Z,21.60
2023-05-05T09:45:46.646Z,21.70
2023-05-05T09:48:25.776Z,21.80
2023-05-05T09:50:56.256Z,21.90
2023-05-05T09:53:24.949Z,22.00
2023-05-05T09:55:56.649Z,22.10
2023-05-05T09:58:26.353Z,22.20
2023-05-05T10:00:55.082Z,22.40
2023-05-05T10:03:23.719Z,22.60
2023-05-05T10:05:54.597Z,22.60
2023-05-05T10:08:24.346Z,22.80
2023-05-05T10:10:53.908Z,23.30
2023-05-05T10:13:22.789Z,23.70
2023-05-05T10:15:53.162Z,23.80
2023-05-05T10:18:22.972Z,24.00
2023-05-05T10:20:58.732Z,24.20
2023-05-05T10:23:32.709Z,24.20
2023-05-05T10:26:03.647Z,24.30
2023-05-05T10:28:34.598Z,24.10
2023-05-05T10:31:12.884Z,24.30
2023-05-05T10:33:53.635Z,24.50
2023-05-05T10:36:24.392Z,24.80
2023-05-05T10:38:57.333Z,25.00
2023-05-05T10:41:26.120Z,25.10
2023-05-05T10:43:56.169Z,25.10
2023-05-05T10:46:24.540Z,25.20
2023-05-05T10:48:58.765Z,25.30
2023-05-05T10:51:40.076Z,25.10
2023-05-05T10:54:15.432Z,25.10
2023-05-05T10:56:43.802Z,25.20
2023-05-05T10:59:42.999Z,25.70
2023-05-05T11:02:25.019Z,25.70
2023-05-05T11:05:14.973Z,25.80
2023-05-05T11:07:45.028Z,26.00
2023-05-05T11:10:14.660Z,26.00
2023-05-05T11:13:19.967Z,26.00
2023-05-05T11:15:48.793Z,26.30
2023-05-05T11:18:35.737Z,26.40
2023-05-05T11:21:17.527Z,26.60
2023-05-05T11:23:49.313Z,26.70
2023-05-05T11:26:18.771Z,26.80
2023-05-05T11:29:01.370Z,26.90
2023-05-05T11:31:30.582Z,27.10
2023-05-05T11:34:28.947Z,27.30
2023-05-05T11:37:01.162Z,27.40
2023-05-05T11:39:42.299Z,27.30
2023-05-05T11:42:26.042Z,27.50
2023-05-05T11:44:54.868Z,27.30
2023-05-05T11:47:28.084Z,27.30
2023-05-05T11:49:56.640Z,27.00
2023-05-05T11:52:28.351Z,26.60
2023-05-05T11:55:02.423Z,26.30
2023-05-05T11:57:31.101Z,26.20
2023-05-05T12:00:01.718Z,26.40
2023-05-05T12:02:32.590Z,27.00
2023-05-05T12:05:01.464Z,27.30
2023-05-05T12:07:31.187Z,27.30
2023-05-05T12:10:00.869Z,27.30
2023-05-05T12:12:36.534Z,27.70
2023-05-05T12:15:05.440Z,28.00
2023-05-05T12:17:39.619Z,27.90
2023-05-05T12:20:08.731Z,28.10
2023-05-05T12:22:36.984Z,28.30
2023-05-05T12:25:07.826Z,28.90
2023-05-05T12:27:36.326Z,29.60
2023-05-05T12:30:18.466Z,29.80
2023-05-05T12:32:47.029Z,28.70
2023-05-05T12:35:15.990Z,29.10
2023-05-05T12:37:44.551Z,29.60
2023-05-05T12:40:44.508Z,29.80
2023-05-05T12:43:25.467Z,29.40
2023-05-05T12:46:03.823Z,28.70
2023-05-05T12:48:31.868Z,28.00
2023-05-05T12:51:13.808Z,27.70
2023-05-05T12:53:41.659Z,27.60
2023-05-05T12:56:32.284Z,27.80
2023-05-05T12:59:00.249Z,28.20
2023-05-05T13:01:28.439Z,28.20
2023-05-05T13:04:07.061Z,28.40
2023-05-05T13:06:36.003Z,28.80
2023-05-05T13:09:04.076Z,28.90
2023-05-05T13:11:36.675Z,28.60
2023-05-05T13:14:04.720Z,28.50
2023-05-05T13:16:33.674Z,28.50
2023-05-05T13:19:01.727Z,28.80
2023-05-05T13:21:29.571Z,29.20
2023-05-05T13:24:08.108Z,29.70
2023-05-05T13:26:46.905Z,30.60
2023-05-05T13:29:16.321Z,31.20
2023-05-05T13:31:44.793Z,31.50
2023-05-05T13:34:12.865Z,31.50
2023-05-05T13:36:40.737Z,30.90
2023-05-05T13:39:08.893Z,30.60
2023-05-05T13:41:36.794Z,29.50
2023-05-05T13:44:06.200Z,28.20
2023-05-05T13:46:34.116Z,27.90
2023-05-05T13:49:01.968Z,27.40
2023-05-05T13:51:29.875Z,26.80
2023-05-05T13:53:57.753Z,26.40
2023-05-05T13:56:27.605Z,26.10
2023-05-05T13:58:55.642Z,25.90
2023-05-05T14:01:24.999Z,25.80
2023-05-05T14:03:53.603Z,25.60
2023-05-05T14:06:22.863Z,25.20
2023-05-05T14:08:51.580Z,25.20
2023-05-05T14:11:20.782Z,25.30
2023-05-05T14:13:48.940Z,25.10
2023-05-05T14:16:16.813Z,25.30
2023-05-05T14:18:46.086Z,25.30
2023-05-05T14:21:13.943Z,25.20
2023-05-05T14:23:41.829Z,25.10
2023-05-05T14:26:09.865Z,24.90
2023-05-05T14:28:37.725Z,24.50
2023-05-05T14:31:05.938Z,24.40
2023-05-05T14:33:33.808Z,24.30
2023-05-05T14:36:03.049Z,23.90
2023-05-05T14:38:30.967Z,22.40
2023-05-05T14:40:58.908Z,20.50
2023-05-05T14:43:26.804Z,19.40
2023-05-05T14:45:54.830Z,18.60
2023-05-05T14:48:22.859Z,18.30
2023-05-05T14:50:50.699Z,18.30
2023-05-05T14:53:19.925Z,18.30
2023-05-05T14:55:47.774Z,18.30
2023-05-05T14:58:15.669Z,18.30
2023-05-05T15:00:43.521Z,18.40
2023-05-05T15:03:11.522Z,18.60
2023-05-05T15:05:39.435Z,18.80
2023-05-05T15:08:07.677Z,18.90
2023-05-05T15:10:36.866Z,19.00
2023-05-05T15:13:04.755Z,19.20
2023-05-05T15:15:32.678Z,19.30
2023-05-05T15:18:00.583Z,19.40
2023-05-05T15:20:28.725Z,19.60
2023-05-05T15:22:56.639Z,19.70
2023-05-05T15:25:24.763Z,19.80
2023-05-05T15:27:54.160Z,20.00
2023-05-05T15:30:22.054Z,20.10
2023-05-05T15:32:49.919Z,20.20
2023-05-05T15:35:17.939Z,20.30
2023-05-05T15:37:45.853Z,20.30
2023-05-05T15:40:14.081Z,20.10
2023-05-05T15:42:41.958Z,20.00
2023-05-05T15:45:13.012Z,20.10
2023-05-05T15:47:40.938Z,20.10
2023-05-05T15:50:09.681Z,20.00
2023-05-05T15:52:37.543Z,19.90
2023-05-05T15:55:06.670Z,19.80
2023-05-05T15:57:34.728Z,19.80
2023-05-05T16:00:02.802Z,19.80
2023-05-05T16:02:36.988Z,19.80
2023-05-05T16:05:05.629Z,19.70
2023-05-05T16:07:33.627Z,19.70
2023-05-05T16:10:01.630Z,19.70
2023-05-05T16:12:29.536Z,19.60
2023-05-05T16:14:57.806Z,19.50
2023-05-05T16:17:25.768Z,19.40
2023-05-05T16:19:55.030Z,19.30
2023-05-05T16:22:22.878Z,19.30
2023-05-05T16:24:50.782Z,19.30
2023-05-05T16:27:18.631Z,19.30
2023-05-05T16:29:46.545Z,19.20
2023-05-05T16:32:14.371Z,19.20
2023-05-05T16:34:42.221Z,19.10
2023-05-05T16:37:12.617Z,19.10
2023-05-05T16:39:41.175Z,19.10
2023-05-05T16:42:09.206Z,19.00
2023-05-05T16:44:37.211Z,19.00
2023-05-05T16:47:05.235Z,19.00
2023-05-05T16:49:33.081Z,19.10
2023-05-05T16:52:01.023Z,19.10
2023-05-05T16:54:30.265Z,19.00
2023-05-05T16:56:58.220Z,18.90
2023-05-05T16:59:26.053Z,18.90
2023-05-05T17:01:53.982Z,18.90
2023-05-05T17:04:21.851Z,19.00
2023-05-05T17:06:49.780Z,19.00
2023-05-05T17:09:17.670Z,19.00
2023-05-05T17:11:47.191Z,19.00
2023-05-05T17:14:15.016Z,19.00
2023-05-05T17:16:42.961Z,18.90
2023-05-05T17:19:10.854Z,18.90
2023-05-05T17:21:38.917Z,18.90
2023-05-05T17:24:08.279Z,18.90
2023-05-05T17:26:36.369Z,18.90
2023-05-05T17:29:05.701Z,19.00
2023-05-05T17:31:33.688Z,18.90
2023-05-05T17:34:01.588Z,19.00
2023-05-05T17:36:29.552Z,19.00
2023-05-05T17:38:57.411Z,19.00
2023-05-05T17:41:25.880Z,19.00
2023-05-05T17:43:53.903Z,19.00
2023-05-05T17:46:23.154Z,19.00
2023-05-05T17:48:51.343Z,19.00
2023-05-05T17:51:19.224Z,19.00
2023-05-05T17:53:47.302Z,18.90
2023-05-05T17:56:15.178Z,18.90
2023-05-05T17:58:43.052Z,18.80
2023-05-05T18:01:13.505Z,18.90
2023-05-05T18:03:42.934Z,18.80
2023-05-05T18:06:10.880Z,18.70
2023-05-05T18:08:38.749Z,18.70
2023-05-05T18:11:06.699Z,18.70
2023-05-05T18:13:34.921Z,18.60
2023-05-05T18:16:02.952Z,18.60
2023-05-05T18:18:31.078Z,18.50
2023-05-05T18:21:00.274Z,18.40
2023-05-05T18:23:29.209Z,18.40
2023-05-05T18:25:57.258Z,18.40
2023-05-05T18:28:25.533Z,18.30
2023-05-05T18:30:53.692Z,18.30
2023-05-05T18:33:21.730Z,18.30
2023-05-05T18:35:49.634Z,18.30
2023-05-05T18:38:18.830Z,18.30
2023-05-05T18:40:46.663Z,18.20
2023-05-05T18:43:14.639Z,18.20
2023-05-05T18:45:42.769Z,18.20
2023-05-05T18:48:11.603Z,18.20
2023-05-05T18:50:39.567Z,18.10
2023-05-05T18:53:07.414Z,18.10
2023-05-05T18:55:36.623Z,18.10
2023-05-05T18:58:04.444Z,18.10
2023-05-05T19:00:32.381Z,18.10
2023-05-05T19:03:00.374Z,18.10
2023-05-05T19:05:28.320Z,18.00
2023-05-05T19:07:56.148Z,17.90
2023-05-05T19:10:24.230Z,17.90
2023-05-05T19:12:55.381Z,17.80
2023-05-05T19:15:23.361Z,17.70
2023-05-05T19:17:51.282Z,17.70
2023-05-05T19:20:19.309Z,17.70
2023-05-05T19:22:47.331Z,17.60
2023-05-05T19:25:16.305Z,17.50
2023-05-05T19:27:44.349Z,17.50
2023-05-05T19:30:14.023Z,17.50
2023-05-05T19:32:41.963Z,17.40
2023-05-05T19:35:10.579Z,17.40
2023-05-05T19:37:38.628Z,17.30
2023-05-05T19:40:08.394Z,17.30
2023-05-05T19:42:36.665Z,17.20
2023-05-05T19:45:05.192Z,17.20
2023-05-05T19:47:35.707Z,17.10
2023-05-05T19:50:04.702Z,17.00
2023-05-05T19:52:32.629Z,16.90
2023-05-05T19:55:00.483Z,16.80
2023-05-05T19:57:28.320Z,16.70
2023-05-05T19:59:56.164Z,16.70
2023-05-05T20:02:26.479Z,16.60
2023-05-05T20:04:56.026Z,16.50
2023-05-05T20:07:23.908Z,16.50
2023-05-05T20:09:54.668Z,16.40
2023-05-05T20:12:23.458Z,16.40
2023-05-05T20:14:51.324Z,16.40
2023-05-05T20:17:20.132Z,16.40
2023-05-05T20:19:48.529Z,16.50
2023-05-05T20:22:17.955Z,16.50
2023-05-05T20:24:45.832Z,16.50
2023-05-05T20:27:13.818Z,16.40
2023-05-05T20:29:41.726Z,16.40
2023-05-05T20:32:09.580Z,16.30
2023-05-05T20:34:38.766Z,16.30
2023-05-05T20:37:06.688Z,16.20
2023-05-05T20:39:35.985Z,16.20
2023-05-05T20:42:03.885Z,16.10
2023-05-05T20:44:31.878Z,16.00
2023-05-05T20:46:59.828Z,16.10
2023-05-05T20:49:27.678Z,16.00
2023-05-05T20:51:55.845Z,16.00
2023-05-05T20:54:23.666Z,16.10
2023-05-05T20:56:53.085Z,16.00
2023-05-05T20:59:20.933Z,16.00
2023-05-05T21:01:48.886Z,16.00
2023-05-05T21:04:16.895Z,16.00
2023-05-05T21:06:44.803Z,15.90
2023-05-05T21:09:12.823Z,16.00
2023-05-05T21:11:40.700Z,15.90
2023-05-05T21:14:10.732Z,15.90
2023-05-05T21:16:38.756Z,15.90
2023-05-05T21:19:06.690Z,16.00
2023-05-05T21:21:34.533Z,16.00
2023-05-05T21:24:02.964Z,16.00
2023-05-05T21:26:31.662Z,16.00
2023-05-05T21:28:59.866Z,16.00
2023-05-05T21:31:29.174Z,16.00
2023-05-05T21:33:57.030Z,16.00
2023-05-05T21:36:25.006Z,16.00
2023-05-05T21:38:55.286Z,16.00
2023-05-05T21:41:23.472Z,16.00
2023-05-05T21:43:51.412Z,15.90
2023-05-05T21:46:19.313Z,15.90
2023-05-05T21:48:48.841Z,15.90
2023-05-05T21:51:17.294Z,15.90
2023-05-05T21:53:45.258Z,15.90
2023-05-05T21:56:13.122Z,15.90
2023-05-05T21:58:41.402Z,15.80
